Time;durP1;ratioP1;P1;durP2;ratioP2;P2;SDS_P1;SDS_P2;PMS_P1;PMS_P2;Temp;Humidity;BMP_temperature;BMP_pressure;BME280_temperature;BME280_humidity;BME280_pressure;Samples;Min_cycle;Max_cycle;Signal;HPM_P1;HPM_P2
2024/04/10 00:00:58;;;;;;;18.30;6.90;;;;;;;14.94;46.98;100695.23;105350;1257;106589;-72
2024/04/10 00:03:51;;;;;;;17.90;7.20;;;;;;;14.91;47.19;100692.34;105367;1251;96498;-73
2024/04/10 00:06:43;;;;;;;18.40;7.40;;;;;;;14.88;47.23;100690.00;105457;1253;96676;-73
2024/04/10 00:09:16;;;;;;;19.00;7.70;;;;;;;14.85;47.12;100690.46;105257;1253;109426;-72
2024/04/10 00:11:50;;;;;;;18.40;7.70;;;;;;;14.82;47.31;100689.85;105302;1256;96590;-73
2024/04/10 00:14:24;;;;;;;18.70;7.90;;;;;;;14.78;47.49;100689.59;105520;1255;106513;-72
2024/04/10 00:17:06;;;;;;;22.90;8.30;;;;;;;14.73;47.64;100688.44;105334;1255;97862;-73
2024/04/10 00:19:41;;;;;;;21.70;8.80;;;;;;;14.64;47.64;100686.84;105346;1264;97970;-73
2024/04/10 00:22:12;;;;;;;17.20;7.40;;;;;;;14.60;47.73;100689.21;105322;1251;108686;-72
2024/04/10 00:24:46;;;;;;;23.80;9.00;;;;;;;14.56;47.91;100685.22;105350;1257;96555;-73
2024/04/10 00:27:37;;;;;;;21.20;8.70;;;;;;;14.49;48.03;100685.24;105275;1257;106219;-72
2024/04/10 00:30:30;;;;;;;16.40;7.60;;;;;;;14.44;48.29;100687.77;105242;1255;96594;-73
2024/04/10 00:33:04;;;;;;;19.70;8.70;;;;;;;14.37;48.34;100679.70;105349;1254;96693;-72
2024/04/10 00:35:58;;;;;;;26.10;12.40;;;;;;;14.32;48.54;100679.58;105388;1254;110486;-73
2024/04/10 00:38:40;;;;;;;26.80;13.20;;;;;;;14.23;48.61;100680.77;105551;1257;96504;-72
2024/04/10 00:41:31;;;;;;;25.60;14.70;;;;;;;14.12;48.84;100680.87;105315;1257;106211;-73
2024/04/10 00:44:13;;;;;;;32.10;16.10;;;;;;;14.01;49.15;100678.32;105495;1254;96805;-73
2024/04/10 00:46:44;;;;;;;29.60;15.60;;;;;;;13.95;49.03;100681.67;105378;1253;96597;-73
2024/04/10 00:49:17;;;;;;;30.90;15.00;;;;;;;13.92;49.08;100678.09;105293;1256;108495;-73
2024/04/10 00:51:54;;;;;;;28.10;15.00;;;;;;;13.92;49.11;100675.98;105284;1255;97248;-73
2024/04/10 00:54:28;;;;;;;30.20;15.00;;;;;;;13.92;49.20;100676.70;105203;1256;108289;-72
2024/04/10 00:56:59;;;;;;;31.10;15.50;;;;;;;13.92;49.34;100675.26;105354;1255;96721;-72
2024/04/10 00:59:30;;;;;;;31.30;15.20;;;;;;;13.85;49.37;100673.70;105508;1251;97552;-73
2024/04/10 01:02:12;;;;;;;25.80;14.00;;;;;;;13.79;49.39;100677.59;105510;1250;108715;-72
2024/04/10 01:04:49;;;;;;;25.80;11.30;;;;;;;13.75;49.60;100677.15;105496;1253;96600;-72
2024/04/10 01:07:20;;;;;;;;;;;;;;;13.75;49.75;100682.22;105334;1253;108191;-73
2024/04/10 01:10:02;;;;;;;24.40;9.80;;;;;;;13.72;50.04;100680.38;105409;1254;97012;-73
2024/04/10 01:12:46;;;;;;;20.10;9.00;;;;;;;13.70;49.97;100680.52;105437;1254;97264;-72
2024/04/10 01:15:36;;;;;;;23.30;9.60;;;;;;;13.71;50.20;100682.46;105266;1253;110559;-72
2024/04/10 01:18:07;;;;;;;19.70;9.70;;;;;;;13.70;50.16;100680.35;105441;1257;97518;-72
2024/04/10 01:20:41;;;;;;;19.40;9.60;;;;;;;13.71;50.25;100677.36;105314;1257;105391;-73
2024/04/10 01:23:13;;;;;;;23.60;11.00;;;;;;;13.71;50.47;100674.39;105183;1254;96629;-73
2024/04/10 01:25:57;;;;;;;27.00;12.50;;;;;;;13.71;50.65;100671.58;105245;1260;96704;-73
2024/04/10 01:28:41;;;;;;;26.30;11.80;;;;;;;13.68;50.56;100673.43;105352;1251;110264;-72
2024/04/10 01:31:32;;;;;;;25.20;12.00;;;;;;;13.65;50.66;100676.19;105286;1256;96668;-74
2024/04/10 01:34:13;;;;;;;26.80;12.30;;;;;;;13.60;50.88;100676.22;105317;1267;106371;-73
2024/04/10 01:36:54;;;;;;;26.80;12.50;;;;;;;13.56;50.76;100682.45;105351;1251;96683;-72
2024/04/10 01:39:25;;;;;;;25.80;11.60;;;;;;;13.53;50.96;100680.78;105401;1251;96666;-72
2024/04/10 01:41:56;;;;;;;24.20;11.70;;;;;;;13.48;51.00;100684.54;105309;1257;107585;-73
2024/04/10 01:44:47;;;;;;;27.60;11.00;;;;;;;13.44;51.07;100685.30;105541;1256;96701;-73
2024/04/10 01:47:20;;;;;;;26.20;11.00;;;;;;;13.41;51.05;100685.55;105239;1253;107822;-72
2024/04/10 01:49:58;;;;;;;22.70;11.40;;;;;;;13.36;51.17;100689.13;105245;1257;97133;-72
2024/04/10 01:52:29;;;;;;;24.90;11.70;;;;;;;13.35;51.40;100687.15;105348;1253;96501;-72
2024/04/10 01:55:11;;;;;;;23.50;11.80;;;;;;;13.34;51.38;100688.52;105237;1253;108595;-72
2024/04/10 01:57:45;;;;;;;24.50;11.00;;;;;;;13.34;51.59;100688.69;105357;1254;96565;-72
2024/04/10 02:00:20;;;;;;;23.20;10.60;;;;;;;13.29;51.60;100685.91;105326;1254;106790;-73
2024/04/10 02:03:11;;;;;;;22.00;10.00;;;;;;;13.27;51.58;100683.73;105284;1251;96607;-72
2024/04/10 02:05:45;;;;;;;23.10;10.10;;;;;;;13.24;51.67;100683.14;105415;1254;96930;-72
2024/04/10 02:08:22;;;;;;;25.90;10.70;;;;;;;13.21;51.71;100682.69;105511;1253;110439;-73
2024/04/10 02:10:59;;;;;;;;;;;;;;;13.18;51.94;100684.91;105668;1256;96971;-72
2024/04/10 02:13:43;;;;;;;21.90;9.50;;;;;;;13.10;52.00;100688.71;105668;1257;106497;-73
2024/04/10 02:16:35;;;;;;;24.90;9.20;;;;;;;13.06;52.14;100691.77;105408;1253;96619;-73
2024/04/10 02:19:26;;;;;;;22.00;9.20;;;;;;;13.03;52.19;100693.95;105509;1250;96562;-73
2024/04/10 02:21:57;;;;;;;30.30;9.10;;;;;;;13.03;52.29;100693.95;105397;1254;108704;-73
2024/04/10 02:24:48;;;;;;;23.60;8.60;;;;;;;13.01;52.44;100693.54;105390;1258;96977;-73
2024/04/10 02:27:21;;;;;;;;;;;;;;;12.98;52.45;100691.19;105363;1258;106436;-73
2024/04/10 02:30:12;;;;;;;19.70;7.80;;;;;;;12.97;52.47;100694.48;105256;1257;96709;-72
2024/04/10 02:33:02;;;;;;;17.90;8.20;;;;;;;12.98;52.64;100696.09;105253;1254;96502;-73
2024/04/10 02:35:33;;;;;;;19.50;8.10;;;;;;;12.97;52.55;100696.95;105332;1257;110433;-72
2024/04/10 02:38:13;;;;;;;20.50;8.20;;;;;;;12.95;52.71;100696.55;105453;1252;97820;-73
2024/04/10 02:40:52;;;;;;;17.90;8.30;;;;;;;12.91;52.68;100700.13;105319;1254;105223;-72
2024/04/10 02:43:36;;;;;;;18.80;7.70;;;;;;;12.86;52.80;100698.02;105347;1256;96641;-72
2024/04/10 02:46:16;;;;;;;19.70;8.50;;;;;;;12.80;52.81;100698.02;105423;1255;96686;-73
2024/04/10 02:49:07;;;;;;;20.90;8.80;;;;;;;12.78;52.92;100698.52;105307;1252;108654;-72
2024/04/10 02:51:58;;;;;;;19.70;7.90;;;;;;;12.75;52.98;100699.29;105252;1256;96596;-73
2024/04/10 02:54:40;;;;;;;22.60;8.50;;;;;;;12.75;53.17;100706.30;105286;1253;106968;-73
2024/04/10 02:57:14;;;;;;;25.20;8.40;;;;;;;12.74;53.10;100701.05;105229;1267;96616;-72
2024/04/10 03:00:10;;;;;;;23.40;8.70;;;;;;;12.74;53.24;100704.16;105203;1254;97101;-73
2024/04/10 03:02:44;;;;;;;18.50;8.60;;;;;;;12.74;53.28;100705.91;105251;1254;108558;-73
2024/04/10 03:05:14;;;;;;;20.10;9.50;;;;;;;12.72;53.34;100708.69;105410;1256;96636;-73
2024/04/10 03:07:45;;;;;;;25.10;10.00;;;;;;;12.71;53.48;100713.73;105305;1256;106370;-72
2024/04/10 03:10:36;;;;;;;22.90;9.60;;;;;;;12.68;53.53;100723.30;105309;1256;96671;-73
2024/04/10 03:13:28;;;;;;;22.50;10.60;;;;;;;12.70;53.62;100730.88;105301;1253;98126;-73
2024/04/10 03:16:00;;;;;;;;;;;;;;;12.69;53.68;100733.85;105259;1253;110421;-73
2024/04/10 03:18:41;;;;;;;25.10;13.50;;;;;;;12.65;53.79;100734.80;105268;1252;96556;-72
2024/04/10 03:21:22;;;;;;;26.80;13.00;;;;;;;12.66;53.83;100735.15;105549;1253;113391;-73
2024/04/10 03:23:59;;;;;;;28.20;12.50;;;;;;;12.65;53.86;100738.48;105290;1253;98065;-73
2024/04/10 03:26:32;;;;;;;28.30;12.30;;;;;;;12.63;54.06;100735.60;105365;1254;98457;-72
2024/04/10 03:29:02;;;;;;;28.70;12.10;;;;;;;12.59;54.08;100742.36;105306;1253;110010;-72
2024/04/10 03:31:43;;;;;;;27.60;11.90;;;;;;;12.59;54.22;100742.87;105235;1257;101383;-72
2024/04/10 03:34:24;;;;;;;28.40;11.60;;;;;;;12.58;54.25;100745.48;105291;1252;106389;-73
2024/04/10 03:36:57;;;;;;;25.30;13.00;;;;;;;12.57;54.41;100746.52;105375;1253;99528;-72
2024/04/10 03:39:50;;;;;;;25.90;12.20;;;;;;;12.58;54.45;100749.86;105288;1253;98476;-73
2024/04/10 03:42:34;;;;;;;23.30;11.20;;;;;;;12.59;54.60;100754.63;105258;1256;111849;-73
2024/04/10 03:45:08;;;;;;;27.70;11.50;;;;;;;12.59;54.67;100756.38;105475;1253;97941;-73
2024/04/10 03:47:58;;;;;;;24.80;11.30;;;;;;;12.57;54.70;100755.80;105405;1250;106272;-74
2024/04/10 03:50:32;;;;;;;22.90;10.80;;;;;;;12.57;54.78;100757.90;105241;1253;97944;-72
2024/04/10 03:53:06;;;;;;;23.30;9.80;;;;;;;12.58;54.85;100761.98;105409;1253;97941;-72
2024/04/10 03:55:42;;;;;;;26.80;10.60;;;;;;;12.60;54.97;100762.20;105569;1256;110251;-72
2024/04/10 03:58:33;;;;;;;28.20;11.30;;;;;;;12.64;55.04;100768.13;105334;1253;99311;-73
2024/04/10 04:01:04;;;;;;;24.60;10.50;;;;;;;12.70;55.06;100771.42;105231;1267;106200;-72
2024/04/10 04:03:43;;;;;;;28.50;10.30;;;;;;;12.74;55.15;100773.36;105356;1253;98016;-72
2024/04/10 04:06:17;;;;;;;27.10;9.90;;;;;;;12.81;55.22;100770.92;105382;1254;98039;-72
2024/04/10 04:08:49;;;;;;;25.10;9.70;;;;;;;12.85;55.23;100769.10;105567;1250;111876;-72
2024/04/10 04:11:32;;;;;;;28.00;10.20;;;;;;;12.88;55.24;100768.86;105703;1252;98470;-72
2024/04/10 04:14:04;;;;;;;28.70;10.80;;;;;;;12.91;55.31;100769.30;105368;1253;106422;-72
2024/04/10 04:16:46;;;;;;;28.10;9.80;;;;;;;12.94;55.44;100774.84;105550;1256;98227;-72
2024/04/10 04:19:22;;;;;;;29.80;9.50;;;;;;;13.01;55.44;100776.27;105264;1253;98520;-73
2024/04/10 04:21:55;;;;;;;32.60;10.10;;;;;;;13.08;55.44;100781.56;105315;1251;111164;-72
2024/04/10 04:24:39;;;;;;;27.00;9.50;;;;;;;13.15;55.69;100782.48;105539;1255;97921;-72
2024/04/10 04:27:25;;;;;;;32.90;10.00;;;;;;;13.16;55.69;100784.27;105410;1250;106211;-72
2024/04/10 04:30:16;;;;;;;30.50;10.30;;;;;;;13.16;55.47;100780.57;105517;1254;98023;-71
2024/04/10 04:32:47;;;;;;;22.10;9.30;;;;;;;13.19;55.49;100782.58;105368;1254;98486;-71
2024/04/10 04:35:26;;;;;;;26.60;10.40;;;;;;;13.25;55.74;100781.89;105568;1253;109957;-72
2024/04/10 04:38:00;;;;;;;30.40;10.00;;;;;;;13.33;55.76;100786.36;105784;1253;97902;-75
2024/04/10 04:40:33;;;;;;;38.20;10.40;;;;;;;13.40;55.74;100785.85;105550;1256;106478;-72
2024/04/10 04:43:17;;;;;;;29.10;10.20;;;;;;;13.46;55.70;100788.51;105574;1251;97911;-72
2024/04/10 04:46:11;;;;;;;46.20;11.30;;;;;;;13.52;55.77;100789.55;105382;1254;98438;-72
2024/04/10 04:48:45;;;;;;;33.30;11.50;;;;;;;13.57;55.79;100787.75;105782;1250;110189;-71
2024/04/10 04:51:36;;;;;;;28.30;9.90;;;;;;;13.63;55.94;100785.29;105911;1253;97880;-73
2024/04/10 04:54:29;;;;;;;28.90;9.90;;;;;;;13.72;55.94;100786.40;105961;1253;107441;-75
2024/04/10 04:57:20;;;;;;;32.60;10.30;;;;;;;13.81;55.86;100784.89;105899;1253;97842;-72
2024/04/10 05:00:11;;;;;;;37.20;9.90;;;;;;;13.87;55.81;100781.89;105926;1252;97838;-72
2024/04/10 05:03:03;;;;;;;27.70;10.00;;;;;;;13.96;55.74;100785.84;106248;1250;110054;-72
2024/04/10 05:05:54;;;;;;;27.30;9.80;;;;;;;14.06;55.79;100781.50;106142;1251;97948;-72
2024/04/10 05:08:45;;;;;;;23.20;9.50;;;;;;;14.14;55.55;100786.30;105772;1250;106750;-72
2024/04/10 05:11:36;;;;;;;25.40;9.50;;;;;;;14.23;55.47;100792.49;105742;1253;98638;-72
2024/04/10 05:14:27;;;;;;;24.80;9.60;;;;;;;14.30;55.41;100797.43;105924;1256;98011;-72
2024/04/10 05:17:14;;;;;;;21.80;9.90;;;;;;;14.40;55.44;100799.27;106015;1256;109954;-72
2024/04/10 05:20:11;;;;;;;28.00;10.50;;;;;;;14.51;55.26;100800.59;106039;1253;97948;-73
2024/04/10 05:22:56;;;;;;;23.20;9.30;;;;;;;14.63;55.20;100796.14;108558;1250;106754;-72
2024/04/10 05:25:38;;;;;;;21.10;9.80;;;;;;;14.73;55.13;100800.97;108441;1250;97883;-73
2024/04/10 05:28:49;;;;;;;21.90;10.50;;;;;;;14.89;55.05;100800.80;102371;1298;635172;-71
2024/04/10 05:31:40;;;;;;;20.50;9.70;;;;;;;15.02;55.01;100811.67;105284;1267;95295;-72
2024/04/10 05:34:31;;;;;;;18.30;8.90;;;;;;;15.16;54.82;100815.31;105542;1267;95446;-72
2024/04/10 05:37:23;;;;;;;21.20;8.60;;;;;;;15.28;54.66;100811.01;105455;1269;107418;-71
2024/04/10 05:40:16;;;;;;;18.00;8.10;;;;;;;15.43;54.16;100817.49;105195;1278;99558;-71
2024/04/10 05:43:07;;;;;;;14.80;7.00;;;;;;;15.56;54.17;100817.92;101618;1260;5458504;-72
2024/04/10 05:45:59;;;;;;;14.90;6.70;;;;;;;15.67;54.02;100818.86;105741;1257;95181;-71
2024/04/10 05:48:51;;;;;;;19.90;7.00;;;;;;;15.81;53.79;100822.15;105809;1257;95336;-71
2024/04/10 05:51:41;;;;;;;20.00;7.00;;;;;;;15.92;52.81;100821.30;105860;1254;107062;-72
2024/04/10 05:54:35;;;;;;;16.40;6.80;;;;;;;16.04;53.30;100823.65;106027;1257;95264;-71
2024/04/10 05:57:27;;;;;;;15.60;6.60;;;;;;;16.16;53.27;100824.40;106018;1254;106205;-74
2024/04/10 06:00:18;;;;;;;16.00;6.80;;;;;;;16.30;53.09;100829.75;106054;1258;95469;-72
2024/04/10 06:03:09;;;;;;;14.70;6.40;;;;;;;16.42;52.30;100832.61;105751;1261;96571;-73
2024/04/10 06:06:29;;;;;;;16.00;6.00;;;;;;;16.55;51.78;100836.20;102001;1299;636241;-72
2024/04/10 06:09:21;;;;;;;16.80;6.80;;;;;;;16.61;51.25;100841.05;108117;1258;93482;-73
2024/04/10 06:12:13;;;;;;;15.30;6.90;;;;;;;16.66;50.46;100841.14;108087;1259;93814;-72
2024/04/10 06:15:06;;;;;;;17.10;6.50;;;;;;;16.72;51.11;100839.98;107977;1254;107370;-74
2024/04/10 06:18:02;;;;;;;15.10;6.70;;;;;;;16.81;50.68;100840.13;108163;1258;100032;-72
2024/04/10 06:21:00;;;;;;;17.20;6.60;;;;;;;16.91;51.16;100842.96;104073;1254;5453313;-75
2024/04/10 06:23:54;;;;;;;15.80;6.30;;;;;;;17.07;51.25;100844.80;108321;1254;93515;-72
2024/04/10 06:26:45;;;;;;;18.00;6.50;;;;;;;17.21;50.98;100849.42;108542;1256;107306;-71
2024/04/10 06:29:42;;;;;;;13.80;5.80;;;;;;;17.34;50.60;100847.46;108542;1250;94883;-73
2024/04/10 06:32:26;;;;;;;15.60;6.40;;;;;;;17.49;50.29;100846.95;108559;1253;106236;-72
2024/04/10 06:35:01;;;;;;;;;;;;;;;17.58;50.03;100846.55;108485;1249;94334;-72
2024/04/10 06:37:50;;;;;;;16.30;5.60;;;;;;;17.69;49.34;100850.75;108441;1253;94081;-72
2024/04/10 06:40:52;;;;;;;13.50;6.00;;;;;;;17.80;48.42;100853.52;108343;1255;108877;-71
2024/04/10 06:43:33;;;;;;;12.40;5.70;;;;;;;17.94;48.88;100853.55;108442;1253;94497;-71
2024/04/10 06:46:25;;;;;;;13.50;5.90;;;;;;;18.11;48.81;100857.08;108444;1254;106675;-73
2024/04/10 06:49:16;;;;;;;14.60;5.40;;;;;;;18.23;48.18;100855.96;108485;1253;94827;-72
2024/04/10 06:52:12;;;;;;;13.50;5.00;;;;;;;18.37;48.84;100853.98;108530;1253;94090;-72
2024/04/10 06:55:03;;;;;;;17.30;5.10;;;;;;;18.54;48.42;100851.29;108305;1256;109826;-71
2024/04/10 06:57:56;;;;;;;17.00;5.30;;;;;;;18.71;48.13;100851.25;108476;1251;94506;-74
2024/04/10 07:00:41;;;;;;;12.90;4.80;;;;;;;18.91;47.80;100852.15;108429;1256;107825;-73
2024/04/10 07:03:22;;;;;;;20.70;6.00;;;;;;;19.11;47.75;100849.80;108475;1251;94630;-73
2024/04/10 07:06:09;;;;;;;11.20;5.40;;;;;;;19.33;47.18;100853.82;108482;1256;94128;-74
2024/04/10 07:09:00;;;;;;;14.00;5.40;;;;;;;19.48;46.43;100851.06;108419;1251;114612;-73
2024/04/10 07:11:43;;;;;;;11.80;5.10;;;;;;;19.61;45.92;100852.18;108454;1256;95084;-72
2024/04/10 07:14:19;;;;;;;10.50;5.10;;;;;;;19.74;45.41;100853.31;108585;1256;106826;-72
2024/04/10 07:17:11;;;;;;;11.80;4.70;;;;;;;19.89;45.77;100852.48;108488;1251;94663;-72
2024/04/10 07:19:47;;;;;;;12.80;4.50;;;;;;;20.02;46.03;100847.38;108533;1253;95312;-72
2024/04/10 07:22:38;;;;;;;11.20;4.30;;;;;;;20.25;46.09;100844.39;108496;1251;108568;-73
2024/04/10 07:25:19;;;;;;;14.50;4.60;;;;;;;20.43;45.47;100850.81;108571;1251;95175;-73
2024/04/10 07:28:12;;;;;;;8.50;4.30;;;;;;;20.57;45.10;100848.51;108383;1256;106375;-72
2024/04/10 07:31:04;;;;;;;9.50;4.20;;;;;;;20.74;44.27;100852.27;108217;1255;94982;-72
2024/04/10 07:33:56;;;;;;;8.90;3.90;;;;;;;20.96;43.98;100853.33;108548;1254;94286;-73
2024/04/10 07:36:47;;;;;;;8.20;3.70;;;;;;;21.12;43.39;100855.77;108405;1254;109783;-72
2024/04/10 07:39:29;;;;;;;11.00;3.60;;;;;;;21.24;42.77;100856.45;108403;1251;94366;-73
2024/04/10 07:42:26;;;;;;;;;;;;;;;21.32;42.05;100856.42;108418;1251;107684;-74
2024/04/10 07:45:12;;;;;;;9.60;4.00;;;;;;;21.43;41.12;100851.95;108603;1251;93923;-73
2024/04/10 07:48:01;;;;;;;7.10;3.40;;;;;;;21.49;41.23;100847.86;108545;1253;95138;-72
2024/04/10 07:50:54;;;;;;;12.20;3.50;;;;;;;21.67;40.73;100846.36;108569;1253;108723;-72
2024/04/10 07:53:34;;;;;;;9.60;3.40;;;;;;;21.81;40.79;100843.64;108485;1254;94409;-72
2024/04/10 07:56:12;;;;;;;7.90;3.30;;;;;;;21.97;40.87;100841.59;107967;1254;106517;-74
2024/04/10 07:58:49;;;;;;;10.60;3.00;;;;;;;22.07;40.01;100841.70;108072;1251;94830;-73
2024/04/10 08:01:45;;;;;;;8.30;3.30;;;;;;;22.18;38.94;100839.14;108360;1251;94754;-73
2024/04/10 08:04:16;;;;;;;6.40;2.90;;;;;;;22.24;38.12;100836.95;108401;1256;109238;-71
2024/04/10 08:06:55;;;;;;;6.60;2.90;;;;;;;22.22;37.88;100840.89;108482;1251;94327;-71
2024/04/10 08:09:31;;;;;;;5.20;3.20;;;;;;;22.23;38.40;100843.20;108440;1254;107303;-73
2024/04/10 08:12:02;;;;;;;12.00;3.30;;;;;;;22.31;38.75;100839.78;108386;1254;94593;-73
2024/04/10 08:14:34;;;;;;;4.90;3.00;;;;;;;22.35;37.39;100843.15;108474;1254;94349;-71
2024/04/10 08:17:08;;;;;;;7.50;3.20;;;;;;;22.33;37.90;100837.27;108484;1253;108665;-72
2024/04/10 08:19:38;;;;;;;;;;;;;;;22.43;37.45;100835.60;108419;1251;96249;-72
2024/04/10 08:22:09;;;;;;;9.20;3.30;;;;;;;22.54;37.92;100836.04;108300;1251;107527;-73
2024/04/10 08:24:58;;;;;;;8.10;3.50;;;;;;;22.66;38.35;100834.16;108485;1251;94486;-74
2024/04/10 08:27:32;;;;;;;13.10;3.50;;;;;;;22.83;38.65;100831.86;108433;1251;94361;-73
2024/04/10 08:30:03;;;;;;;8.70;3.50;;;;;;;22.98;38.40;100827.26;108354;1253;109227;-72
2024/04/10 08:32:34;;;;;;;10.50;3.60;;;;;;;23.13;38.56;100823.39;108372;1254;96890;-72
2024/04/10 08:35:07;;;;;;;10.30;3.80;;;;;;;23.26;37.91;100823.24;108315;1254;107490;-71
2024/04/10 08:37:38;;;;;;;9.60;3.60;;;;;;;23.44;38.40;100819.64;108416;1254;94280;-73
2024/04/10 08:40:11;;;;;;;7.80;3.30;;;;;;;23.57;37.58;100821.61;108480;1251;94679;-74
2024/04/10 08:42:52;;;;;;;9.80;3.70;;;;;;;23.71;37.56;100819.27;108521;1251;108459;-72
2024/04/10 08:45:25;;;;;;;7.50;3.40;;;;;;;23.86;37.41;100818.02;108513;1254;94307;-72
2024/04/10 08:47:57;;;;;;;7.80;3.70;;;;;;;24.02;37.46;100817.62;108408;1255;107690;-76
2024/04/10 08:50:31;;;;;;;8.50;3.90;;;;;;;24.13;37.19;100818.91;108416;1253;95021;-73
2024/04/10 08:53:03;;;;;;;5.70;3.40;;;;;;;24.24;36.97;100812.64;108352;1257;93981;-74
2024/04/10 08:55:36;;;;;;;9.20;3.50;;;;;;;24.32;37.06;100813.41;108410;1254;108504;-73
2024/04/10 08:58:07;;;;;;;11.10;4.40;;;;;;;24.31;36.72;100812.17;108416;1253;94486;-73
2024/04/10 09:00:41;;;;;;;;;;;;;;;24.23;36.37;100817.84;108385;1251;108042;-74
2024/04/10 09:03:12;;;;;;;9.20;3.50;;;;;;;24.12;36.52;100816.40;108399;1251;94100;-73
2024/04/10 09:05:45;;;;;;;10.80;4.10;;;;;;;24.18;35.97;100812.39;108418;1251;94700;-74
2024/04/10 09:08:28;;;;;;;10.80;4.00;;;;;;;24.08;35.75;100816.83;108508;1251;110154;-73
2024/04/10 09:11:04;;;;;;;7.10;3.50;;;;;;;24.06;36.12;100816.31;108432;1255;94688;-72
2024/04/10 09:13:48;;;;;;;8.60;3.50;;;;;;;24.17;36.02;100814.02;108380;1253;106449;-73
2024/04/10 09:16:24;;;;;;;8.90;3.30;;;;;;;24.29;36.17;100815.59;108414;1254;94851;-72
2024/04/10 09:18:54;;;;;;;8.60;4.00;;;;;;;24.32;35.82;100818.77;108461;1252;93690;-71
2024/04/10 09:21:26;;;;;;;7.60;3.30;;;;;;;24.31;35.50;100818.60;108412;1251;110427;-74
2024/04/10 09:24:03;;;;;;;10.90;3.70;;;;;;;24.33;35.69;100819.29;108543;1251;95147;-72
2024/04/10 09:26:36;;;;;;;9.10;3.60;;;;;;;24.39;35.87;100819.02;108465;1251;106243;-72
2024/04/10 09:29:09;;;;;;;10.70;4.00;;;;;;;24.39;35.73;100814.00;108506;1251;94688;-72
2024/04/10 09:31:42;;;;;;;10.60;4.10;;;;;;;24.44;35.45;100819.46;108360;1251;93837;-73
2024/04/10 09:34:26;;;;;;;10.10;3.60;;;;;;;24.41;34.59;100810.76;108394;1256;108740;-72
2024/04/10 09:36:57;;;;;;;6.30;3.70;;;;;;;24.40;35.09;100815.23;108380;1254;94918;-73
2024/04/10 09:39:30;;;;;;;9.60;3.80;;;;;;;24.41;34.90;100815.94;108466;1251;105682;-72
2024/04/10 09:42:07;;;;;;;9.40;4.60;;;;;;;24.37;34.92;100816.71;108499;1251;94561;-73
2024/04/10 09:44:40;;;;;;;10.00;4.00;;;;;;;24.41;35.26;100814.34;108414;1251;94053;-74
2024/04/10 09:47:14;;;;;;;14.60;4.30;;;;;;;24.47;35.38;100813.00;108482;1251;108687;-73
2024/04/10 09:49:49;;;;;;;12.80;4.10;;;;;;;24.57;35.30;100813.00;108467;1251;95578;-73
2024/04/10 09:52:21;;;;;;;12.70;3.90;;;;;;;24.65;34.87;100814.31;108364;1254;113065;-74
2024/04/10 09:54:59;;;;;;;10.70;4.60;;;;;;;24.68;34.88;100809.08;108334;1257;93656;-74
2024/04/10 09:57:33;;;;;;;11.40;4.80;;;;;;;24.78;35.15;100806.39;108285;1253;94419;-73
2024/04/10 10:00:07;;;;;;;7.50;3.80;;;;;;;24.84;35.03;100807.70;108152;1254;108672;-73
2024/04/10 10:02:39;;;;;;;9.40;4.10;;;;;;;24.83;35.00;100802.00;108364;1251;100993;-73
2024/04/10 10:05:22;;;;;;;9.10;3.90;;;;;;;24.83;34.61;100802.73;108375;1251;106523;-73
2024/04/10 10:08:05;;;;;;;6.40;3.70;;;;;;;24.79;34.86;100800.48;108342;1251;94793;-74
2024/04/10 10:10:49;;;;;;;5.80;3.70;;;;;;;24.75;34.21;100799.11;108165;1253;94584;-74
2024/04/10 10:13:29;;;;;;;10.90;3.80;;;;;;;24.65;34.06;100800.39;108089;1254;115027;-74
2024/04/10 10:16:01;;;;;;;6.90;3.40;;;;;;;24.58;33.93;100801.73;108199;1254;94803;-74
2024/04/10 10:18:33;;;;;;;7.10;3.70;;;;;;;24.52;33.94;100804.84;108234;1252;107492;-73
2024/04/10 10:21:22;;;;;;;10.10;3.70;;;;;;;24.52;33.83;100794.83;108229;1251;94552;-74
2024/04/10 10:23:59;;;;;;;9.10;4.10;;;;;;;24.66;34.08;100796.06;108454;1251;93937;-73
2024/04/10 10:26:30;;;;;;;10.00;4.10;;;;;;;24.82;33.77;100792.36;108044;1251;109597;-74
2024/04/10 10:29:05;;;;;;;10.30;3.90;;;;;;;24.89;33.87;100793.84;108253;1251;94961;-73
2024/04/10 10:31:36;;;;;;;7.00;3.90;;;;;;;24.95;34.16;100789.44;108158;1251;106802;-74
2024/04/10 10:34:12;;;;;;;6.00;3.50;;;;;;;24.98;34.21;100780.43;108097;1254;95706;-73
2024/04/10 10:36:45;;;;;;;9.40;3.80;;;;;;;24.98;34.13;100777.21;108156;1254;96377;-74
2024/04/10 10:39:16;;;;;;;8.50;3.60;;;;;;;25.00;34.10;100779.15;108136;1254;110636;-73
2024/04/10 10:41:47;;;;;;;13.80;4.00;;;;;;;25.00;33.95;100776.83;108342;1251;96585;-76
2024/04/10 10:44:26;;;;;;;9.70;4.20;;;;;;;24.98;33.63;100777.94;108498;1251;106875;-74
2024/04/10 10:46:58;;;;;;;8.20;3.90;;;;;;;24.94;33.46;100777.46;108364;1251;96349;-74
2024/04/10 10:49:29;;;;;;;9.00;3.70;;;;;;;24.90;33.32;100790.79;108439;1251;95800;-74
2024/04/10 10:52:04;;;;;;;10.10;3.50;;;;;;;24.86;33.56;100791.94;108310;1251;112274;-74
2024/04/10 10:54:35;;;;;;;8.80;4.00;;;;;;;24.89;33.33;100792.23;108380;1256;95913;-73
2024/04/10 10:57:07;;;;;;;10.60;3.80;;;;;;;24.98;33.26;100789.74;108324;1254;106498;-74
2024/04/10 10:59:39;;;;;;;8.80;3.90;;;;;;;25.03;33.09;100781.23;108138;1254;96463;-73
2024/04/10 11:02:17;;;;;;;11.80;4.20;;;;;;;25.07;33.31;100779.36;108341;1251;95526;-74
2024/04/10 11:04:52;;;;;;;15.90;3.80;;;;;;;25.13;33.42;100776.58;108325;1253;109885;-75
2024/04/10 11:07:24;;;;;;;12.90;3.70;;;;;;;25.19;32.94;100774.11;108425;1251;95712;-74
2024/04/10 11:10:08;;;;;;;6.80;3.60;;;;;;;25.25;32.30;100775.06;108437;1253;107284;-72
2024/04/10 11:12:39;;;;;;;8.70;3.70;;;;;;;25.28;31.83;100778.23;108499;1251;95019;-75
2024/04/10 11:15:12;;;;;;;11.60;4.00;;;;;;;25.29;32.01;100775.71;108534;1251;96548;-72
2024/04/10 11:17:44;;;;;;;8.30;3.80;;;;;;;25.25;31.68;100776.30;108347;1253;109271;-73
2024/04/10 11:20:16;;;;;;;7.40;3.90;;;;;;;25.24;31.87;100777.94;108331;1253;95438;-74
2024/04/10 11:22:51;;;;;;;9.40;4.30;;;;;;;25.27;32.07;100775.92;108349;1251;107364;-74
2024/04/10 11:25:25;;;;;;;9.80;3.80;;;;;;;25.36;32.12;100774.16;108429;1251;95084;-75
2024/04/10 11:27:58;;;;;;;7.10;3.50;;;;;;;25.40;31.86;100768.88;108432;1251;96167;-73
2024/04/10 11:30:31;;;;;;;9.60;3.50;;;;;;;25.41;31.80;100769.73;108480;1251;109914;-73
2024/04/10 11:33:04;;;;;;;5.60;3.50;;;;;;;25.42;31.33;100767.92;108445;1251;95501;-74
2024/04/10 11:35:37;;;;;;;6.50;3.10;;;;;;;25.40;30.93;100767.60;108354;1252;106658;-73
2024/04/10 11:38:07;;;;;;;8.30;3.70;;;;;;;25.34;31.17;100768.28;108388;1253;95186;-74
2024/04/10 11:40:44;;;;;;;8.50;3.20;;;;;;;25.29;30.18;100769.98;108355;1253;96079;-73
2024/04/10 11:43:16;;;;;;;9.00;3.70;;;;;;;25.25;30.65;100767.55;108044;1250;111899;-73
2024/04/10 11:45:49;;;;;;;5.30;3.30;;;;;;;25.27;30.59;100763.20;108333;1251;96309;-75
2024/04/10 11:48:25;;;;;;;10.10;3.50;;;;;;;25.29;30.42;100764.08;108254;1251;107282;-72
2024/04/10 11:51:04;;;;;;;7.10;3.60;;;;;;;25.32;30.62;100764.03;108427;1251;96168;-75
2024/04/10 11:53:38;;;;;;;7.50;3.20;;;;;;;25.32;29.91;100764.02;108182;1253;97058;-74
2024/04/10 11:56:11;;;;;;;10.20;3.50;;;;;;;25.28;29.82;100762.29;108386;1253;111649;-74
2024/04/10 11:58:49;;;;;;;9.10;3.40;;;;;;;25.30;30.26;100762.63;108303;1252;95033;-72
2024/04/10 12:01:25;;;;;;;7.60;3.60;;;;;;;25.32;30.54;100759.90;108100;1256;107619;-73
2024/04/10 12:03:58;;;;;;;6.80;3.50;;;;;;;25.35;30.53;100753.04;108270;1251;95524;-72
2024/04/10 12:06:29;;;;;;;9.30;3.70;;;;;;;25.38;30.52;100749.74;108436;1251;95453;-73
2024/04/10 12:09:09;;;;;;;10.10;3.50;;;;;;;25.39;30.45;100752.06;108481;1251;109515;-73